createdAt,value
2019-05-01T00:00:57.192Z,1003.71
2019-05-01T00:01:57.370Z,1003.72
2019-05-01T00:02:57.546Z,1003.72
2019-05-01T00:03:57.727Z,1003.75
2019-05-01T00:04:58.882Z,1003.71
2019-05-01T00:05:58.058Z,1003.73
2019-05-01T00:06:58.230Z,1003.73
2019-05-01T00:07:58.865Z,1003.67
2019-05-01T00:08:59.515Z,1003.66
2019-05-01T00:09:58.661Z,1003.70
2019-05-01T00:10:58.826Z,1003.64
2019-05-01T00:11:58.963Z,1003.63
2019-05-01T00:12:59.119Z,1003.71
2019-05-01T00:13:59.275Z,1003.67
2019-05-01T00:14:59.411Z,1003.73
2019-05-01T00:15:59.595Z,1003.70
2019-05-01T00:16:59.733Z,1003.68
2019-05-01T00:17:59.857Z,1003.66
2019-05-01T00:19:00.015Z,1003.66
2019-05-01T00:20:00.132Z,1003.71
2019-05-01T00:21:00.295Z,1003.69
2019-05-01T00:22:00.442Z,1003.65
2019-05-01T00:23:00.611Z,1003.64
2019-05-01T00:24:00.868Z,1003.68
2019-05-01T00:25:01.964Z,1003.64
2019-05-01T00:26:01.087Z,1003.67
2019-05-01T00:27:01.376Z,1003.61
2019-05-01T00:28:02.367Z,1003.59
2019-05-01T00:29:01.592Z,1003.61
2019-05-01T00:30:01.756Z,1003.60
2019-05-01T00:31:01.915Z,1003.58
2019-05-01T00:32:02.111Z,1003.59
2019-05-01T00:33:02.259Z,1003.56
2019-05-01T00:34:02.415Z,1003.56
2019-05-01T00:35:02.611Z,1003.52
2019-05-01T00:36:03.364Z,1003.46
2019-05-01T00:37:02.927Z,1003.51
2019-05-01T00:38:03.118Z,1003.48
2019-05-01T00:39:03.298Z,1003.49
2019-05-01T00:40:03.457Z,1003.45
2019-05-01T00:41:04.367Z,1003.47
2019-05-01T00:42:03.771Z,1003.50
2019-05-01T00:43:03.973Z,1003.51
2019-05-01T00:44:04.158Z,1003.50
2019-05-01T00:45:04.320Z,1003.51
2019-05-01T00:46:04.505Z,1003.49
2019-05-01T00:47:04.676Z,1003.47
2019-05-01T00:48:04.847Z,1003.43
2019-05-01T00:49:05.050Z,1003.40
2019-05-01T00:50:05.245Z,1003.37
2019-05-01T00:51:05.433Z,1003.37
2019-05-01T00:52:05.630Z,1003.39
2019-05-01T00:53:06.376Z,1003.40
2019-05-01T00:54:06.382Z,1003.35
2019-05-01T00:55:06.050Z,1003.36
2019-05-01T00:56:06.885Z,1003.39
2019-05-01T00:57:06.414Z,1003.35
2019-05-01T00:58:06.582Z,1003.35
2019-05-01T00:59:06.874Z,1003.35
2019-05-01T01:00:06.926Z,1003.32
2019-05-01T01:01:07.112Z,1003.28
2019-05-01T01:02:07.274Z,1003.27
2019-05-01T01:03:07.430Z,1003.23
2019-05-01T01:04:07.595Z,1003.29
2019-05-01T01:05:07.772Z,1003.25
2019-05-01T01:06:07.948Z,1003.19
2019-05-01T01:07:08.138Z,1003.21
2019-05-01T01:08:08.337Z,1003.18
2019-05-01T01:09:08.500Z,1003.22
2019-05-01T01:10:08.669Z,1003.26
2019-05-01T01:11:08.857Z,1003.20
2019-05-01T01:12:09.039Z,1003.24
2019-05-01T01:13:09.207Z,1003.21
2019-05-01T01:14:09.379Z,1003.19
2019-05-01T01:15:09.538Z,1003.22
2019-05-01T01:16:09.883Z,1003.16
2019-05-01T01:17:10.383Z,1003.18
2019-05-01T01:18:10.151Z,1003.21
2019-05-01T01:19:10.320Z,1003.13
2019-05-01T01:20:10.469Z,1003.14
2019-05-01T01:21:10.634Z,1003.14
2019-05-01T01:22:10.821Z,1003.13
2019-05-01T01:23:10.968Z,1003.16
2019-05-01T01:24:11.134Z,1003.17
2019-05-01T01:25:11.319Z,1003.16
2019-05-01T01:26:11.497Z,1003.19
2019-05-01T01:27:11.716Z,1003.14
2019-05-01T01:28:11.877Z,1003.13
2019-05-01T01:29:12.060Z,1003.17
2019-05-01T01:30:12.249Z,1003.13
2019-05-01T01:31:12.448Z,1003.12
2019-05-01T01:32:12.627Z,1003.08
2019-05-01T01:33:12.805Z,1003.11
2019-05-01T01:34:12.982Z,1003.08
2019-05-01T01:35:13.180Z,1003.13
2019-05-01T01:36:13.886Z,1003.07
2019-05-01T01:37:13.545Z,1003.06
2019-05-01T01:38:13.719Z,1003.09
2019-05-01T01:39:13.907Z,1003.06
2019-05-01T01:40:14.096Z,1003.03
2019-05-01T01:41:14.251Z,1003.03
2019-05-01T01:42:14.437Z,1003.00
2019-05-01T01:43:14.622Z,1002.99
2019-05-01T01:44:14.805Z,1002.93
2019-05-01T01:45:14.980Z,1002.96
2019-05-01T01:46:15.132Z,1002.93
2019-05-01T01:47:15.267Z,1002.96
2019-05-01T01:48:15.450Z,1002.97
2019-05-01T01:49:15.605Z,1002.95
2019-05-01T01:50:15.757Z,1002.88
2019-05-01T01:51:15.905Z,1002.88
2019-05-01T01:52:16.068Z,1002.93
2019-05-01T01:53:16.239Z,1002.87
2019-05-01T01:54:16.435Z,1002.89
2019-05-01T01:55:16.617Z,1002.91
2019-05-01T01:56:17.356Z,1002.84
2019-05-01T01:57:18.018Z,1002.88
2019-05-01T01:58:17.172Z,1002.85
2019-05-01T01:59:17.369Z,1002.88
2019-05-01T02:00:17.527Z,1002.84
2019-05-01T02:01:17.673Z,1002.85
2019-05-01T02:02:17.799Z,1002.84
2019-05-01T02:03:17.985Z,1002.84
2019-05-01T02:04:18.888Z,1002.82
2019-05-01T02:05:18.282Z,1002.80
2019-05-01T02:06:18.442Z,1002.86
2019-05-01T02:07:18.608Z,1002.89
2019-05-01T02:08:18.835Z,1002.86
2019-05-01T02:09:19.013Z,1002.92
2019-05-01T02:10:19.248Z,1002.86
2019-05-01T02:11:19.314Z,1002.87
2019-05-01T02:12:19.497Z,1002.87
2019-05-01T02:13:19.665Z,1002.87
2019-05-01T02:14:19.846Z,1002.86
2019-05-01T02:15:20.013Z,1002.87
2019-05-01T02:16:20.162Z,1002.85
2019-05-01T02:17:20.320Z,1002.85
2019-05-01T02:18:20.890Z,1002.83
2019-05-01T02:19:20.676Z,1002.86
2019-05-01T02:20:21.831Z,1002.85
2019-05-01T02:21:20.986Z,1002.85
2019-05-01T02:22:21.149Z,1002.86
2019-05-01T02:23:21.424Z,1002.86
2019-05-01T02:24:21.446Z,1002.85
2019-05-01T02:25:21.547Z,1002.86
2019-05-01T02:26:21.786Z,1002.85
2019-05-01T02:27:22.389Z,1002.88
2019-05-01T02:28:22.247Z,1002.86
2019-05-01T02:29:22.474Z,1002.83
2019-05-01T02:30:22.679Z,1002.83
2019-05-01T02:31:28.066Z,1002.79
2019-05-01T02:32:25.121Z,1002.76
2019-05-01T02:33:23.351Z,1002.78
2019-05-01T02:34:23.481Z,1002.80
2019-05-01T02:35:23.571Z,1002.84
2019-05-01T02:36:23.768Z,1002.77
2019-05-01T02:37:23.918Z,1002.80
2019-05-01T02:38:24.165Z,1002.78
2019-05-01T02:39:24.411Z,1002.84
2019-05-01T02:40:24.521Z,1002.79
2019-05-01T02:41:24.666Z,1002.76
2019-05-01T02:42:24.804Z,1002.79
2019-05-01T02:43:24.945Z,1002.83
2019-05-01T02:44:25.214Z,1002.75
2019-05-01T02:45:25.354Z,1002.83
2019-05-01T02:46:25.496Z,1002.83
2019-05-01T02:47:25.652Z,1002.83
2019-05-01T02:48:25.807Z,1002.84
2019-05-01T02:49:25.964Z,1002.82
2019-05-01T02:50:26.130Z,1002.80
2019-05-01T02:51:26.880Z,1002.79
2019-05-01T02:52:26.492Z,1002.84
2019-05-01T02:53:26.639Z,1002.84
2019-05-01T02:54:26.896Z,1002.88
2019-05-01T02:55:27.402Z,1002.84
2019-05-01T02:56:27.072Z,1002.81
2019-05-01T02:57:27.225Z,1002.87
2019-05-01T02:58:27.379Z,1002.85
2019-05-01T02:59:27.522Z,1002.84
2019-05-01T03:00:27.698Z,1002.80
2019-05-01T03:01:44.695Z,1002.79
2019-05-01T03:02:30.100Z,1002.78
2019-05-01T03:03:28.349Z,1002.81
2019-05-01T03:04:28.504Z,1002.70
2019-05-01T03:05:28.661Z,1002.78
2019-05-01T03:06:28.787Z,1002.74
2019-05-01T03:07:28.932Z,1002.76
2019-05-01T03:08:29.058Z,1002.70
2019-05-01T03:09:29.204Z,1002.73
2019-05-01T03:10:29.892Z,1002.71
2019-05-01T03:11:29.621Z,1002.72
2019-05-01T03:12:29.744Z,1002.68
2019-05-01T03:13:29.867Z,1002.78
2019-05-01T03:14:29.999Z,1002.80
2019-05-01T03:15:30.150Z,1002.77
2019-05-01T03:16:30.331Z,1002.70
2019-05-01T03:17:30.463Z,1002.71
2019-05-01T03:18:30.619Z,1002.66
2019-05-01T03:19:30.781Z,1002.66
2019-05-01T03:20:30.904Z,1002.64
2019-05-01T03:21:31.057Z,1002.61
2019-05-01T03:22:31.196Z,1002.68
2019-05-01T03:23:31.350Z,1002.63
2019-05-01T03:24:31.526Z,1002.65
2019-05-01T03:25:31.662Z,1002.61
2019-05-01T03:26:31.789Z,1002.71
2019-05-01T03:27:31.938Z,1002.67
2019-05-01T03:28:32.067Z,1002.67
2019-05-01T03:29:32.231Z,1002.69
2019-05-01T03:30:32.383Z,1002.66
2019-05-01T03:31:32.520Z,1002.73
2019-05-01T03:32:32.694Z,1002.66
2019-05-01T03:33:33.847Z,1002.71
2019-05-01T03:34:33.978Z,1002.70
2019-05-01T03:35:33.179Z,1002.74
2019-05-01T03:36:34.234Z,1002.67
2019-05-01T03:37:33.378Z,1002.72
2019-05-01T03:38:34.390Z,1002.68
2019-05-01T03:39:33.768Z,1002.68
2019-05-01T03:40:33.926Z,1002.67
2019-05-01T03:41:34.092Z,1002.67
2019-05-01T03:42:34.295Z,1002.67
2019-05-01T03:43:34.485Z,1002.70
2019-05-01T03:44:34.666Z,1002.66
2019-05-01T03:45:34.806Z,1002.67
2019-05-01T03:46:34.953Z,1002.61
2019-05-01T03:47:35.110Z,1002.62
2019-05-01T03:48:35.894Z,1002.66
2019-05-01T03:49:35.539Z,1002.63
2019-05-01T03:50:35.703Z,1002.61
2019-05-01T03:51:35.858Z,1002.67
2019-05-01T03:52:36.021Z,1002.67
2019-05-01T03:53:36.234Z,1002.62
2019-05-01T03:54:36.447Z,1002.66
2019-05-01T03:55:36.639Z,1002.64
2019-05-01T03:56:36.814Z,1002.63
2019-05-01T03:57:37.876Z,1002.65
2019-05-01T03:58:37.129Z,1002.61
2019-05-01T03:59:37.351Z,1002.60
2019-05-01T04:00:38.380Z,1002.63
2019-05-01T04:01:37.737Z,1002.60
2019-05-01T04:02:37.879Z,1002.63
2019-05-01T04:03:38.030Z,1002.66
2019-05-01T04:04:38.190Z,1002.62
2019-05-01T04:05:38.880Z,1002.59
2019-05-01T04:06:38.908Z,1002.60
2019-05-01T04:07:38.663Z,1002.63
2019-05-01T04:08:38.830Z,1002.60
2019-05-01T04:09:39.057Z,1002.57
2019-05-01T04:10:39.221Z,1002.57
2019-05-01T04:11:39.379Z,1002.61
2019-05-01T04:12:39.533Z,1002.61
2019-05-01T04:13:39.709Z,1002.63
2019-05-01T04:14:39.877Z,1002.67
2019-05-01T04:15:40.020Z,1002.60
2019-05-01T04:16:40.247Z,1002.63
2019-05-01T04:17:40.425Z,1002.62
2019-05-01T04:18:40.563Z,1002.62
2019-05-01T04:19:40.728Z,1002.68
2019-05-01T04:20:40.910Z,1002.68
2019-05-01T04:21:41.065Z,1002.74
2019-05-01T04:22:41.235Z,1002.74
2019-05-01T04:23:41.391Z,1002.64
2019-05-01T04:24:41.551Z,1002.69
2019-05-01T04:25:41.748Z,1002.69
2019-05-01T04:26:42.909Z,1002.66
2019-05-01T04:27:42.156Z,1002.67
2019-05-01T04:28:42.338Z,1002.65
2019-05-01T04:29:42.500Z,1002.69
2019-05-01T04:30:42.644Z,1002.71
2019-05-01T04:31:42.812Z,1002.66
2019-05-01T04:32:52.822Z,1002.66
2019-05-01T04:33:45.226Z,1002.62
2019-05-01T04:34:43.348Z,1002.60
2019-05-01T04:35:43.604Z,1002.59
2019-05-01T04:36:44.400Z,1002.69
2019-05-01T04:37:43.819Z,1002.67
2019-05-01T04:38:43.984Z,1002.64
2019-05-01T04:39:45.152Z,1002.68
2019-05-01T04:40:44.317Z,1002.66
2019-05-01T04:41:45.387Z,1002.70
2019-05-01T04:42:44.638Z,1002.72
2019-05-01T04:43:45.405Z,1002.70
2019-05-01T04:44:45.039Z,1002.73
2019-05-01T04:45:45.201Z,1002.60
2019-05-01T04:46:46.380Z,1002.66
2019-05-01T04:47:45.482Z,1002.63
2019-05-01T04:48:45.699Z,1002.63
2019-05-01T04:49:45.862Z,1002.72
2019-05-01T04:50:46.066Z,1002.72
2019-05-01T04:51:46.269Z,1002.69
2019-05-01T04:52:46.454Z,1002.70
2019-05-01T04:53:46.626Z,1002.71
2019-05-01T04:54:46.794Z,1002.71
2019-05-01T04:55:46.956Z,1002.68
2019-05-01T04:56:47.137Z,1002.65
2019-05-01T04:57:47.295Z,1002.67
2019-05-01T04:58:47.451Z,1002.66
2019-05-01T04:59:47.720Z,1002.70
2019-05-01T05:00:48.403Z,1002.66
2019-05-01T05:01:47.961Z,1002.67
2019-05-01T05:02:48.188Z,1002.64
2019-05-01T05:03:48.327Z,1002.62
2019-05-01T05:04:49.520Z,1002.64
2019-05-01T05:05:48.790Z,1002.73
2019-05-01T05:06:48.964Z,1002.68
2019-05-01T05:07:49.093Z,1002.65
2019-05-01T05:08:49.217Z,1002.69
2019-05-01T05:09:49.891Z,1002.69
2019-05-01T05:10:50.392Z,1002.72
2019-05-01T05:11:49.760Z,1002.71
2019-05-01T05:12:49.969Z,1002.73
2019-05-01T05:13:50.891Z,1002.73
2019-05-01T05:14:50.238Z,1002.68
2019-05-01T05:15:50.469Z,1002.70
2019-05-01T05:16:50.702Z,1002.63
2019-05-01T05:17:50.976Z,1002.67
2019-05-01T05:18:51.089Z,1002.73
2019-05-01T05:19:51.335Z,1002.71
2019-05-01T05:20:51.460Z,1002.65
2019-05-01T05:21:51.583Z,1002.68
2019-05-01T05:22:51.739Z,1002.68
2019-05-01T05:23:51.902Z,1002.67
2019-05-01T05:24:52.032Z,1002.69
2019-05-01T05:25:52.918Z,1002.74
2019-05-01T05:26:52.410Z,1002.74
2019-05-01T05:27:52.591Z,1002.75
2019-05-01T05:28:52.713Z,1002.71
2019-05-01T05:29:52.839Z,1002.72
2019-05-01T05:30:52.977Z,1002.73
2019-05-01T05:31:53.112Z,1002.73
2019-05-01T05:32:53.239Z,1002.70
2019-05-01T05:33:54.403Z,1002.73
2019-05-01T05:34:53.521Z,1002.70
2019-05-01T05:35:54.396Z,1002.73
2019-05-01T05:36:53.771Z,1002.72
2019-05-01T05:37:54.394Z,1002.76
2019-05-01T05:38:54.138Z,1002.78
2019-05-01T05:39:54.291Z,1002.77
2019-05-01T05:40:54.433Z,1002.74
2019-05-01T05:41:54.553Z,1002.77
2019-05-01T05:42:54.694Z,1002.78
2019-05-01T05:43:54.890Z,1002.77
2019-05-01T05:44:55.057Z,1002.80
2019-05-01T05:45:55.210Z,1002.78
2019-05-01T05:46:55.334Z,1002.76
2019-05-01T05:47:55.537Z,1002.78
2019-05-01T05:48:55.729Z,1002.81
2019-05-01T05:49:56.396Z,1002.78
2019-05-01T05:50:56.054Z,1002.75
2019-05-01T05:51:56.228Z,1002.77
2019-05-01T05:52:56.899Z,1002.78
2019-05-01T05:53:57.402Z,1002.76
2019-05-01T05:54:56.800Z,1002.75
2019-05-01T05:55:56.984Z,1002.76
2019-05-01T05:56:57.186Z,1002.82
2019-05-01T05:57:57.348Z,1002.84
2019-05-01T05:58:57.541Z,1002.79
2019-05-01T05:59:57.921Z,1002.81
2019-05-01T06:00:57.846Z,1002.78
2019-05-01T06:01:58.004Z,1002.73
2019-05-01T06:02:58.165Z,1002.74
2019-05-01T06:03:58.313Z,1002.72
2019-05-01T06:04:58.504Z,1002.70
2019-05-01T06:05:58.673Z,1002.73
2019-05-01T06:06:58.825Z,1002.76
2019-05-01T06:07:59.912Z,1002.74
2019-05-01T06:08:59.158Z,1002.73
2019-05-01T06:09:59.305Z,1002.71
2019-05-01T06:11:00.166Z,1002.71
2019-05-01T06:12:04.783Z,1002.73
2019-05-01T06:13:00.784Z,1002.71
2019-05-01T06:14:00.029Z,1002.67
2019-05-01T06:15:06.028Z,1002.66
2019-05-01T06:16:02.302Z,1002.68
2019-05-01T06:17:00.532Z,1002.74
2019-05-01T06:18:04.161Z,1002.71
2019-05-01T06:19:01.842Z,1002.76
2019-05-01T06:20:00.944Z,1002.73
2019-05-01T06:21:02.266Z,1002.73
2019-05-01T06:22:04.996Z,1002.79
2019-05-01T06:23:03.412Z,1002.69
2019-05-01T06:24:06.461Z,1002.69
2019-05-01T06:25:03.858Z,1002.62
2019-05-01T06:26:02.579Z,1002.63
2019-05-01T06:27:03.295Z,1002.66
2019-05-01T06:28:02.399Z,1002.67
2019-05-01T06:29:02.644Z,1002.66
2019-05-01T06:30:06.494Z,1002.63
2019-05-01T06:31:04.019Z,1002.69
2019-05-01T06:32:03.177Z,1002.69
2019-05-01T06:33:04.221Z,1002.65
2019-05-01T06:34:05.522Z,1002.63
2019-05-01T06:35:04.665Z,1002.61
2019-05-01T06:36:03.910Z,1002.66
2019-05-01T06:37:05.171Z,1002.70
2019-05-01T06:38:04.423Z,1002.62
2019-05-01T06:39:06.755Z,1002.70
2019-05-01T06:40:06.775Z,1002.62
2019-05-01T06:41:04.983Z,1002.67
2019-05-01T06:42:05.115Z,1002.60
2019-05-01T06:43:05.271Z,1002.64
2019-05-01T06:44:07.585Z,1002.64
2019-05-01T06:45:06.513Z,1002.63
2019-05-01T06:46:06.412Z,1002.66
2019-05-01T06:47:05.879Z,1002.66
2019-05-01T06:48:06.049Z,1002.65
2019-05-01T06:49:07.105Z,1002.64
2019-05-01T06:50:07.573Z,1002.66
2019-05-01T06:51:07.411Z,1002.66
2019-05-01T06:52:06.628Z,1002.63
2019-05-01T06:53:06.874Z,1002.63
2019-05-01T06:54:11.397Z,1002.60
2019-05-01T06:55:08.275Z,1002.61
2019-05-01T06:56:08.408Z,1002.56
2019-05-01T06:57:07.644Z,1002.61
2019-05-01T06:58:08.415Z,1002.59
2019-05-01T06:59:08.043Z,1002.66
2019-05-01T07:00:09.448Z,1002.63
2019-05-01T07:01:08.394Z,1002.65
2019-05-01T07:02:08.529Z,1002.64
2019-05-01T07:03:10.464Z,1002.69
2019-05-01T07:04:09.913Z,1002.63
2019-05-01T07:05:14.551Z,1002.61
2019-05-01T07:06:14.377Z,1002.58
2019-05-01T07:07:24.750Z,1002.59
2019-05-01T07:08:23.979Z,1002.54
2019-05-01T07:09:11.931Z,1002.65
2019-05-01T07:10:11.060Z,1002.59
2019-05-01T07:11:10.868Z,1002.63
2019-05-01T07:12:12.382Z,1002.56
2019-05-01T07:13:10.597Z,1002.61
2019-05-01T07:14:11.115Z,1002.62
2019-05-01T07:15:12.989Z,1002.54
2019-05-01T07:16:11.188Z,1002.54
2019-05-01T07:17:13.544Z,1002.54
2019-05-01T07:18:12.556Z,1002.56
2019-05-01T07:19:11.699Z,1002.60
2019-05-01T07:20:16.571Z,1002.54
2019-05-01T07:21:13.041Z,1002.56
2019-05-01T07:22:12.173Z,1002.42
2019-05-01T07:23:12.779Z,1002.44
2019-05-01T07:24:13.530Z,1002.43
2019-05-01T07:25:13.417Z,1002.43
2019-05-01T07:26:13.710Z,1002.41
2019-05-01T07:27:13.984Z,1002.40
2019-05-01T07:28:13.116Z,1002.43
2019-05-01T07:29:13.303Z,1002.41
2019-05-01T07:30:15.900Z,1002.43
2019-05-01T07:31:15.621Z,1002.45
2019-05-01T07:32:15.152Z,1002.47
2019-05-01T07:33:16.642Z,1002.45
2019-05-01T07:34:16.648Z,1002.44
2019-05-01T07:35:15.370Z,1002.43
2019-05-01T07:36:16.318Z,1002.41
2019-05-01T07:37:15.640Z,1002.44
2019-05-01T07:38:14.826Z,1002.45
2019-05-01T07:39:15.858Z,1002.37
2019-05-01T07:40:15.187Z,1002.39
2019-05-01T07:41:15.340Z,1002.39
2019-05-01T07:42:15.529Z,1002.37
2019-05-01T07:43:18.990Z,1002.42
2019-05-01T07:44:16.927Z,1002.42
2019-05-01T07:45:16.070Z,1002.35
2019-05-01T07:46:18.462Z,1002.33
2019-05-01T07:47:18.423Z,1002.30
2019-05-01T07:48:16.670Z,1002.32
2019-05-01T07:49:17.695Z,1002.31
2019-05-01T07:50:18.032Z,1002.35
2019-05-01T07:51:17.219Z,1002.31
2019-05-01T07:52:18.730Z,1002.32
2019-05-01T07:53:17.590Z,1002.34
2019-05-01T07:54:17.760Z,1002.35
2019-05-01T07:55:20.103Z,1002.32
2019-05-01T07:56:18.212Z,1002.27
2019-05-01T07:57:18.370Z,1002.32
2019-05-01T07:58:18.538Z,1002.36
2019-05-01T07:59:22.874Z,1002.34
2019-05-01T08:00:20.922Z,1002.32
2019-05-01T08:01:20.159Z,1002.28
2019-05-01T08:02:19.330Z,1002.23
2019-05-01T08:03:20.425Z,1002.26
2019-05-01T08:04:35.233Z,1002.29
2019-05-01T08:05:20.907Z,1002.33
2019-05-01T08:06:21.487Z,1002.24
2019-05-01T08:07:21.235Z,1002.27
2019-05-01T08:08:20.463Z,1002.29
2019-05-01T08:09:20.607Z,1002.23
2019-05-01T08:10:21.024Z,1002.25
2019-05-01T08:11:21.974Z,1002.27
2019-05-01T08:12:23.927Z,1002.26
2019-05-01T08:13:22.202Z,1002.25
2019-05-01T08:14:21.441Z,1002.23
2019-05-01T08:15:22.582Z,1002.25
2019-05-01T08:16:23.758Z,1002.24
2019-05-01T08:17:21.848Z,1002.22
2019-05-01T08:18:24.082Z,1002.26
2019-05-01T08:19:24.231Z,1002.24
2019-05-01T08:20:22.453Z,1002.22
2019-05-01T08:21:26.004Z,1002.24
2019-05-01T08:22:23.758Z,1002.17
2019-05-01T08:23:22.902Z,1002.21
2019-05-01T08:24:24.726Z,1002.17
2019-05-01T08:25:24.253Z,1002.21
2019-05-01T08:26:23.474Z,1002.19
2019-05-01T08:27:23.602Z,1002.24
2019-05-01T08:28:27.616Z,1002.23
2019-05-01T08:29:23.862Z,1002.21
2019-05-01T08:30:24.443Z,1002.20
2019-05-01T08:31:27.776Z,1002.15
2019-05-01T08:32:25.544Z,1002.13
2019-05-01T08:33:24.782Z,1002.17
2019-05-01T08:34:25.404Z,1002.18
2019-05-01T08:35:26.117Z,1002.21
2019-05-01T08:36:25.358Z,1002.20
2019-05-01T08:37:27.126Z,1002.21
2019-05-01T08:38:29.867Z,1002.21
2019-05-01T08:39:26.828Z,1002.16
2019-05-01T08:40:26.048Z,1002.19
2019-05-01T08:41:27.016Z,1002.17
2019-05-01T08:42:28.430Z,1002.24
2019-05-01T08:43:26.939Z,1002.26
2019-05-01T08:44:29.537Z,1002.24
2019-05-01T08:45:28.045Z,1002.23
2019-05-01T08:46:27.280Z,1002.23
2019-05-01T08:47:27.934Z,1002.26
2019-05-01T08:48:30.870Z,1002.23
2019-05-01T08:49:28.792Z,1002.22
2019-05-01T08:50:27.914Z,1002.19
2019-05-01T08:51:29.996Z,1002.22
2019-05-01T08:52:30.310Z,1002.24
2019-05-01T08:53:28.409Z,1002.22
2019-05-01T08:54:28.881Z,1002.26
2019-05-01T08:55:29.747Z,1002.20
2019-05-01T08:56:28.876Z,1002.20
2019-05-01T08:57:50.072Z,1002.16
2019-05-01T08:58:29.170Z,1002.17
2019-05-01T08:59:29.348Z,1002.15
2019-05-01T09:00:30.927Z,1002.15
2019-05-01T09:01:31.644Z,1002.12
2019-05-01T09:02:29.878Z,1002.22
2019-05-01T09:03:30.061Z,1002.16
2019-05-01T09:04:32.244Z,1002.15
2019-05-01T09:05:33.937Z,1002.13
2019-05-01T09:06:34.866Z,1002.10
2019-05-01T09:07:33.449Z,1002.10
2019-05-01T09:08:32.162Z,1002.11
2019-05-01T09:09:33.331Z,1002.08
2019-05-01T09:10:32.313Z,1001.95
2019-05-01T09:11:31.786Z,1002.04
2019-05-01T09:12:32.584Z,1002.06
2019-05-01T09:13:31.756Z,1002.07
2019-05-01T09:14:35.177Z,1002.04
2019-05-01T09:15:33.075Z,1002.05
2019-05-01T09:16:32.229Z,1002.01
2019-05-01T09:17:32.400Z,1001.95
2019-05-01T09:18:32.624Z,1001.96
2019-05-01T09:19:32.809Z,1001.98
2019-05-01T09:20:34.007Z,1001.98
2019-05-01T09:21:37.183Z,1001.85
2019-05-01T09:22:34.384Z,1001.86
2019-05-01T09:23:34.624Z,1001.86
2019-05-01T09:24:34.688Z,1001.84
2019-05-01T09:25:35.231Z,1001.84
2019-05-01T09:26:35.943Z,1001.85
2019-05-01T09:27:34.236Z,1001.78
2019-05-01T09:28:36.021Z,1001.81
2019-05-01T09:29:35.548Z,1001.85
2019-05-01T09:30:35.829Z,1001.78
2019-05-01T09:31:35.558Z,1001.73
2019-05-01T09:32:36.183Z,1001.73
2019-05-01T09:33:35.340Z,1001.67
2019-05-01T09:34:35.527Z,1001.76
2019-05-01T09:35:40.283Z,1001.74
2019-05-01T09:36:36.905Z,1001.69
2019-05-01T09:37:36.936Z,1001.72
2019-05-01T09:38:36.215Z,1001.71
2019-05-01T09:39:36.440Z,1001.63
2019-05-01T09:40:36.624Z,1001.64
2019-05-01T09:41:38.405Z,1001.62
2019-05-01T09:42:37.970Z,1001.67
2019-05-01T09:43:37.944Z,1001.69
2019-05-01T09:44:37.344Z,1001.54
2019-05-01T09:45:37.529Z,1001.58
2019-05-01T09:46:37.782Z,1001.54
2019-05-01T09:47:37.930Z,1001.57
2019-05-01T09:48:38.080Z,1001.61
2019-05-01T09:49:38.226Z,1001.54
2019-05-01T09:50:38.400Z,1001.59
2019-05-01T09:51:42.590Z,1001.48
2019-05-01T09:52:39.717Z,1001.51
2019-05-01T09:53:41.111Z,1001.54
2019-05-01T09:54:43.041Z,1001.44
2019-05-01T09:55:40.178Z,1001.47
2019-05-01T09:56:39.460Z,1001.48
2019-05-01T09:57:41.497Z,1001.48
2019-05-01T09:58:40.814Z,1001.49
2019-05-01T09:59:40.047Z,1001.41
2019-05-01T10:00:40.185Z,1001.38
2019-05-01T10:01:40.353Z,1001.36
2019-05-01T10:02:42.089Z,1001.36
2019-05-01T10:03:41.645Z,1001.36
2019-05-01T10:04:40.777Z,1001.29
2019-05-01T10:05:42.829Z,1001.29
2019-05-01T10:06:42.462Z,1001.29
2019-05-01T10:07:41.232Z,1001.39
2019-05-01T10:08:42.407Z,1001.31
2019-05-01T10:09:42.652Z,1001.21
2019-05-01T10:10:42.474Z,1001.25
2019-05-01T10:11:42.106Z,1001.26
2019-05-01T10:12:47.014Z,1001.23
2019-05-01T10:13:44.290Z,1001.17
2019-05-01T10:14:42.408Z,1001.16
2019-05-01T10:15:42.577Z,1001.14
2019-05-01T10:16:42.758Z,1001.17
2019-05-01T10:17:42.897Z,1001.18
2019-05-01T10:18:43.079Z,1001.11
2019-05-01T10:19:43.237Z,1001.11
2019-05-01T10:20:43.391Z,1001.12
2019-05-01T10:21:43.519Z,1001.10
2019-05-01T10:22:43.679Z,1001.14
2019-05-01T10:23:47.126Z,1001.02
2019-05-01T10:24:45.004Z,1001.00
2019-05-01T10:25:48.100Z,1001.04
2019-05-01T10:26:46.262Z,1000.94
2019-05-01T10:27:45.428Z,1001.01
2019-05-01T10:28:45.204Z,1000.94
2019-05-01T10:29:45.810Z,1000.94
2019-05-01T10:30:45.043Z,1000.98
2019-05-01T10:31:46.658Z,1000.95
2019-05-01T10:32:46.431Z,1000.87
2019-05-01T10:33:45.543Z,1000.84
2019-05-01T10:34:45.744Z,1000.89
2019-05-01T10:35:45.907Z,1000.84
2019-05-01T10:36:49.885Z,1000.84
2019-05-01T10:37:48.191Z,1000.84
2019-05-01T10:38:46.887Z,1000.87
2019-05-01T10:39:50.266Z,1000.89
2019-05-01T10:40:48.691Z,1000.80
2019-05-01T10:41:47.924Z,1000.80
2019-05-01T10:42:46.980Z,1000.83
2019-05-01T10:43:47.187Z,1000.80
2019-05-01T10:44:47.360Z,1000.80
2019-05-01T10:45:47.562Z,1000.84
2019-05-01T10:46:47.727Z,1000.79
2019-05-01T10:47:47.908Z,1000.75
2019-05-01T10:48:48.479Z,1000.69
2019-05-01T10:49:48.279Z,1000.69
2019-05-01T10:50:48.450Z,1000.64
2019-05-01T10:51:48.609Z,1000.74
2019-05-01T10:52:48.793Z,1000.72
2019-05-01T10:53:48.982Z,1000.68
2019-05-01T10:54:49.149Z,1000.68
2019-05-01T10:55:49.329Z,1000.67
2019-05-01T10:56:49.505Z,1000.59
2019-05-01T10:57:49.695Z,1000.70
2019-05-01T10:58:49.879Z,1000.63
2019-05-01T10:59:50.959Z,1000.65
2019-05-01T11:00:50.235Z,1000.59
2019-05-01T11:01:50.445Z,1000.61
2019-05-01T11:02:50.612Z,1000.63
2019-05-01T11:03:50.764Z,1000.57
2019-05-01T11:04:50.908Z,1000.57
2019-05-01T11:05:56.205Z,1000.59
2019-05-01T11:06:53.476Z,1000.50
2019-05-01T11:07:51.430Z,1000.53
2019-05-01T11:08:51.538Z,1000.51
2019-05-01T11:09:51.677Z,1000.47
2019-05-01T11:10:51.822Z,1000.48
2019-05-01T11:11:52.004Z,1000.45
2019-05-01T11:12:52.127Z,1000.42
2019-05-01T11:13:52.368Z,1000.41
2019-05-01T11:14:52.513Z,1000.36
2019-05-01T11:15:52.640Z,1000.43
2019-05-01T11:16:53.476Z,1000.36
2019-05-01T11:17:52.989Z,1000.36
2019-05-01T11:18:53.166Z,1000.33
2019-05-01T11:19:53.328Z,1000.34
2019-05-01T11:20:53.487Z,1000.34
2019-05-01T11:21:53.658Z,1000.34
2019-05-01T11:22:53.853Z,1000.31
2019-05-01T11:23:54.021Z,1000.30
2019-05-01T11:24:54.223Z,1000.21
2019-05-01T11:25:54.383Z,1000.25
2019-05-01T11:26:54.513Z,1000.22
2019-05-01T11:27:54.669Z,1000.13
2019-05-01T11:28:55.486Z,1000.17
2019-05-01T11:29:54.999Z,1000.12
2019-05-01T11:30:55.142Z,1000.12
2019-05-01T11:31:55.284Z,1000.11
2019-05-01T11:32:55.444Z,1000.08
2019-05-01T11:33:56.476Z,1000.06
2019-05-01T11:34:55.740Z,1000.05
2019-05-01T11:36:08.363Z,1000.06
2019-05-01T11:36:57.050Z,999.96
2019-05-01T11:37:56.191Z,1000.03
2019-05-01T11:38:56.423Z,999.96
2019-05-01T11:39:57.473Z,999.98
2019-05-01T11:40:56.770Z,999.96
2019-05-01T11:41:56.939Z,999.91
2019-05-01T11:42:57.153Z,999.92
2019-05-01T11:43:57.366Z,999.89
2019-05-01T11:44:57.539Z,999.90
2019-05-01T11:45:57.739Z,999.88
2019-05-01T11:46:57.901Z,999.91
2019-05-01T11:47:58.077Z,999.88
2019-05-01T11:48:58.251Z,999.88
2019-05-01T11:49:58.449Z,999.80
2019-05-01T11:50:58.604Z,999.80
2019-05-01T11:51:58.797Z,999.85
2019-05-01T11:52:58.995Z,999.82
2019-05-01T11:54:02.061Z,999.76
2019-05-01T11:54:59.492Z,999.84
2019-05-01T11:55:59.543Z,999.83
2019-05-01T11:56:59.698Z,999.75
2019-05-01T11:57:59.853Z,999.77
2019-05-01T11:59:00.010Z,999.80
2019-05-01T12:00:00.510Z,999.72
2019-05-01T12:01:00.341Z,999.73
2019-05-01T12:02:02.453Z,999.66
2019-05-01T12:03:01.730Z,999.62
2019-05-01T12:04:01.862Z,999.62
2019-05-01T12:05:01.000Z,999.61
2019-05-01T12:06:01.192Z,999.64
2019-05-01T12:07:01.363Z,999.63
2019-05-01T12:08:01.532Z,999.54
2019-05-01T12:09:01.735Z,999.57